Ana Sayfa
METAR-TAF:

METAR-TAF

Havaalanları :

DeRidder, Louisiana, Amerika Birleşik Devletleri

Enlem: 30-49-54N, Boylam: 093-20-23W, yükseklik: 63 m

Güncel hava durumu gözlemi

Rapor saat 20:55 UTC de 9 dakika önce yapıldı.
Rüzgar güneydoğudan 8 kt
Sıcaklık 32°C
Nem 49%
Basınç 1019 hPa
Görüş mesafesi: 16.1 km
4600 ft yükseklikte parçalı bulutlu
6000 ft yükseklikte parçalı bulutlu
7000 ft yükseklikte parçalı bulutlu

METAR: KDRI 242055Z AUTO 13008KT 10SM SCT046 SCT060 SCT070 32/20 A3008 RMK AO2 T03190195

Saat: 16:04 (21:04 UTC)


TAF: eksik

4.000'den fazla havaalanı için hava durumu gözlemleri ve tahminleri (METAR ve TAF raporları).

Kullanılabilir istasyonlar harita üzerinde sarı ve kırmızı noktalarla gösterilir.

İstasyonun adını görmek için fareyi noktanın üzerinde gezdirin.

Sonrasında hava gözlem ve tahminlerini görmek için tıklayın.

Haritayı değiştirmek için: yaklaştırmak için siyah artı işaretli yeşil düğmeye ve uzaklaştırmak için de eksi işaretli düğmeye hızla tıklayın; bitişik haritalar için yeşil okları kullanın.


METAR-TAF: